sensor_id;sensor_type;location;lat;lon;timestamp;pressure;altitude;pressure_sealevel;temperature;humidity
73103;BME280;61294;65.988;29.172;2023-04-28T00:01:23;98558.22;;;-2.29;85.58
73103;BME280;61294;65.988;29.172;2023-04-28T00:03:49;98577.91;;;-2.12;85.54
73103;BME280;61294;65.988;29.172;2023-04-28T00:06:15;98564.13;;;-2.32;85.67
73103;BME280;61294;65.988;29.172;2023-04-28T00:08:41;98574.78;;;-2.24;86.15
73103;BME280;61294;65.988;29.172;2023-04-28T00:11:10;98562.09;;;-2.39;86.08
73103;BME280;61294;65.988;29.172;2023-04-28T00:13:36;98566.91;;;-2.27;86.53
73103;BME280;61294;65.988;29.172;2023-04-28T00:16:02;98590.50;;;-2.19;86.28
73103;BME280;61294;65.988;29.172;2023-04-28T00:18:29;98565.84;;;-2.32;86.40
73103;BME280;61294;65.988;29.172;2023-04-28T00:20:55;98559.34;;;-2.22;85.88
73103;BME280;61294;65.988;29.172;2023-04-28T00:23:22;98571.31;;;-2.24;85.98
73103;BME280;61294;65.988;29.172;2023-04-28T00:25:51;98548.53;;;-2.35;86.41
73103;BME280;61294;65.988;29.172;2023-04-28T00:28:17;98579.94;;;-2.24;86.86
73103;BME280;61294;65.988;29.172;2023-04-28T00:30:43;98587.97;;;-2.18;86.81
73103;BME280;61294;65.988;29.172;2023-04-28T00:33:09;98563.94;;;-2.36;86.81
73103;BME280;61294;65.988;29.172;2023-04-28T00:35:35;98576.84;;;-2.36;88.19
73103;BME280;61294;65.988;29.172;2023-04-28T00:38:01;98579.53;;;-2.33;88.42
73103;BME280;61294;65.988;29.172;2023-04-28T00:40:34;98570.63;;;-2.40;87.95
73103;BME280;61294;65.988;29.172;2023-04-28T00:43:00;98544.75;;;-2.61;88.38
73103;BME280;61294;65.988;29.172;2023-04-28T00:45:26;98555.56;;;-2.50;88.69
73103;BME280;61294;65.988;29.172;2023-04-28T00:47:51;98574.03;;;-2.41;88.72
73103;BME280;61294;65.988;29.172;2023-04-28T00:50:17;98588.09;;;-2.34;88.82
73103;BME280;61294;65.988;29.172;2023-04-28T00:52:43;98574.84;;;-2.42;89.28
73103;BME280;61294;65.988;29.172;2023-04-28T00:55:09;98589.66;;;-2.38;89.28
73103;BME280;61294;65.988;29.172;2023-04-28T00:57:35;98580.81;;;-2.43;89.21
73103;BME280;61294;65.988;29.172;2023-04-28T01:00:02;98588.75;;;-2.38;89.71
73103;BME280;61294;65.988;29.172;2023-04-28T01:02:28;98593.91;;;-2.38;90.31
73103;BME280;61294;65.988;29.172;2023-04-28T01:04:57;98593.31;;;-2.33;90.35
73103;BME280;61294;65.988;29.172;2023-04-28T01:07:23;98591.09;;;-2.25;90.37
73103;BME280;61294;65.988;29.172;2023-04-28T01:09:49;98593.13;;;-2.18;89.96
73103;BME280;61294;65.988;29.172;2023-04-28T01:12:15;98596.66;;;-2.16;90.39
73103;BME280;61294;65.988;29.172;2023-04-28T01:14:41;98567.72;;;-2.28;90.46
73103;BME280;61294;65.988;29.172;2023-04-28T01:17:07;98578.13;;;-2.27;90.33
73103;BME280;61294;65.988;29.172;2023-04-28T01:19:33;98558.78;;;-2.36;90.50
73103;BME280;61294;65.988;29.172;2023-04-28T01:21:59;98595.97;;;-2.31;90.50
73103;BME280;61294;65.988;29.172;2023-04-28T01:24:25;98560.72;;;-2.50;90.91
73103;BME280;61294;65.988;29.172;2023-04-28T01:26:50;98585.84;;;-2.46;91.82
73103;BME280;61294;65.988;29.172;2023-04-28T01:29:16;98564.72;;;-2.57;91.70
73103;BME280;61294;65.988;29.172;2023-04-28T01:31:42;98593.38;;;-2.51;92.27
73103;BME280;61294;65.988;29.172;2023-04-28T01:34:08;98592.41;;;-2.53;92.14
73103;BME280;61294;65.988;29.172;2023-04-28T01:36:34;98589.97;;;-2.50;92.71
73103;BME280;61294;65.988;29.172;2023-04-28T01:38:59;98563.63;;;-2.62;92.11
73103;BME280;61294;65.988;29.172;2023-04-28T01:41:25;98564.00;;;-2.72;91.97
73103;BME280;61294;65.988;29.172;2023-04-28T01:43:51;98602.25;;;-2.44;92.80
73103;BME280;61294;65.988;29.172;2023-04-28T01:46:17;98595.81;;;-2.34;92.51
73103;BME280;61294;65.988;29.172;2023-04-28T01:48:43;98591.72;;;-2.31;92.07
73103;BME280;61294;65.988;29.172;2023-04-28T01:51:08;98581.38;;;-2.31;92.18
73103;BME280;61294;65.988;29.172;2023-04-28T01:53:34;98597.94;;;-2.26;92.29
73103;BME280;61294;65.988;29.172;2023-04-28T01:56:00;98589.66;;;-2.18;92.27
73103;BME280;61294;65.988;29.172;2023-04-28T01:58:26;98586.06;;;-2.22;92.27
73103;BME280;61294;65.988;29.172;2023-04-28T02:00:52;98587.91;;;-2.19;92.43
73103;BME280;61294;65.988;29.172;2023-04-28T02:03:18;98575.88;;;-2.19;92.12
73103;BME280;61294;65.988;29.172;2023-04-28T02:05:44;98592.66;;;-2.09;91.89
73103;BME280;61294;65.988;29.172;2023-04-28T02:08:10;98589.34;;;-2.06;92.19
73103;BME280;61294;65.988;29.172;2023-04-28T02:10:36;98587.69;;;-2.04;91.83
73103;BME280;61294;65.988;29.172;2023-04-28T02:13:01;98588.44;;;-2.07;92.15
73103;BME280;61294;65.988;29.172;2023-04-28T02:15:27;98579.69;;;-2.11;92.29
73103;BME280;61294;65.988;29.172;2023-04-28T02:17:53;98567.41;;;-2.16;92.68
73103;BME280;61294;65.988;29.172;2023-04-28T02:20:19;98560.25;;;-2.22;92.91
73103;BME280;61294;65.988;29.172;2023-04-28T02:22:44;98578.53;;;-2.17;93.10
73103;BME280;61294;65.988;29.172;2023-04-28T02:25:10;98559.34;;;-2.22;92.86
73103;BME280;61294;65.988;29.172;2023-04-28T02:27:36;98534.44;;;-2.41;92.82
73103;BME280;61294;65.988;29.172;2023-04-28T02:30:06;98554.47;;;-2.36;93.09
73103;BME280;61294;65.988;29.172;2023-04-28T02:32:32;98570.38;;;-2.27;93.17
73103;BME280;61294;65.988;29.172;2023-04-28T02:34:58;98538.44;;;-2.48;93.68
73103;BME280;61294;65.988;29.172;2023-04-28T02:37:24;98567.31;;;-2.37;94.46
73103;BME280;61294;65.988;29.172;2023-04-28T02:39:49;98550.13;;;-2.37;94.07
73103;BME280;61294;65.988;29.172;2023-04-28T02:42:15;98554.28;;;-2.40;94.50
73103;BME280;61294;65.988;29.172;2023-04-28T02:44:41;98551.56;;;-2.44;94.43
73103;BME280;61294;65.988;29.172;2023-04-28T02:47:07;98558.34;;;-2.46;94.86
73103;BME280;61294;65.988;29.172;2023-04-28T02:49:32;98564.59;;;-2.40;94.85
73103;BME280;61294;65.988;29.172;2023-04-28T02:51:58;98554.34;;;-2.39;94.97
73103;BME280;61294;65.988;29.172;2023-04-28T02:54:24;98563.25;;;-2.32;94.29
73103;BME280;61294;65.988;29.172;2023-04-28T02:56:53;98535.38;;;-2.39;94.45
73103;BME280;61294;65.988;29.172;2023-04-28T02:59:19;98551.00;;;-2.17;93.93
73103;BME280;61294;65.988;29.172;2023-04-28T03:01:45;98553.75;;;-2.14;94.20
73103;BME280;61294;65.988;29.172;2023-04-28T03:04:12;98572.00;;;-2.09;94.35
73103;BME280;61294;65.988;29.172;2023-04-28T03:06:38;98550.47;;;-2.10;94.03
73103;BME280;61294;65.988;29.172;2023-04-28T03:09:04;98553.41;;;-2.02;94.01
73103;BME280;61294;65.988;29.172;2023-04-28T03:11:30;98548.09;;;-2.05;93.77
73103;BME280;61294;65.988;29.172;2023-04-28T03:13:55;98562.13;;;-1.98;93.48
73103;BME280;61294;65.988;29.172;2023-04-28T03:16:21;98563.91;;;-1.97;93.54
73103;BME280;61294;65.988;29.172;2023-04-28T03:18:47;98566.44;;;-1.99;93.68
73103;BME280;61294;65.988;29.172;2023-04-28T03:21:13;98520.09;;;-2.15;93.39
73103;BME280;61294;65.988;29.172;2023-04-28T03:23:39;98536.06;;;-2.04;93.17
73103;BME280;61294;65.988;29.172;2023-04-28T03:26:04;98529.00;;;-2.09;93.14
73103;BME280;61294;65.988;29.172;2023-04-28T03:28:30;98568.88;;;-1.82;93.30
73103;BME280;61294;65.988;29.172;2023-04-28T03:30:56;98568.09;;;-1.80;93.32
73103;BME280;61294;65.988;29.172;2023-04-28T03:33:22;98553.03;;;-1.90;92.80
73103;BME280;61294;65.988;29.172;2023-04-28T03:35:48;98551.34;;;-1.89;93.15
73103;BME280;61294;65.988;29.172;2023-04-28T03:38:13;98554.19;;;-1.83;92.95
73103;BME280;61294;65.988;29.172;2023-04-28T03:40:40;98531.75;;;-1.84;93.37
73103;BME280;61294;65.988;29.172;2023-04-28T03:43:05;98537.16;;;-1.78;92.71
73103;BME280;61294;65.988;29.172;2023-04-28T03:45:31;98546.63;;;-1.79;92.66
73103;BME280;61294;65.988;29.172;2023-04-28T03:47:57;98553.31;;;-1.84;93.22
73103;BME280;61294;65.988;29.172;2023-04-28T03:50:23;98549.88;;;-1.83;93.29
73103;BME280;61294;65.988;29.172;2023-04-28T03:52:48;98512.63;;;-1.89;92.53
73103;BME280;61294;65.988;29.172;2023-04-28T03:55:15;98525.91;;;-1.80;92.32
73103;BME280;61294;65.988;29.172;2023-04-28T03:57:40;98516.88;;;-1.90;92.43
73103;BME280;61294;65.988;29.172;2023-04-28T04:00:07;98548.84;;;-1.67;91.95
73103;BME280;61294;65.988;29.172;2023-04-28T04:02:33;98548.09;;;-1.64;92.61
73103;BME280;61294;65.988;29.172;2023-04-28T04:04:59;98543.19;;;-1.58;92.48
73103;BME280;61294;65.988;29.172;2023-04-28T04:07:24;98548.78;;;-1.68;92.50
73103;BME280;61294;65.988;29.172;2023-04-28T04:09:50;98542.00;;;-1.66;92.73
73103;BME280;61294;65.988;29.172;2023-04-28T04:12:16;98545.50;;;-1.64;92.67
73103;BME280;61294;65.988;29.172;2023-04-28T04:14:43;98541.41;;;-1.59;92.39
73103;BME280;61294;65.988;29.172;2023-04-28T04:17:08;98522.31;;;-1.63;92.12
73103;BME280;61294;65.988;29.172;2023-04-28T04:19:34;98529.38;;;-1.59;92.09
73103;BME280;61294;65.988;29.172;2023-04-28T04:22:00;98529.00;;;-1.68;92.50
73103;BME280;61294;65.988;29.172;2023-04-28T04:24:26;98543.59;;;-1.68;92.67
73103;BME280;61294;65.988;29.172;2023-04-28T04:26:51;98525.53;;;-1.68;92.36
73103;BME280;61294;65.988;29.172;2023-04-28T04:29:17;98529.38;;;-1.59;92.38
73103;BME280;61294;65.988;29.172;2023-04-28T04:31:43;98532.03;;;-1.57;92.60
73103;BME280;61294;65.988;29.172;2023-04-28T04:34:10;98530.28;;;-1.58;92.26
73103;BME280;61294;65.988;29.172;2023-04-28T04:36:36;98532.28;;;-1.51;91.95
73103;BME280;61294;65.988;29.172;2023-04-28T04:39:02;98533.69;;;-1.38;91.51
73103;BME280;61294;65.988;29.172;2023-04-28T04:41:28;98527.38;;;-1.45;91.44
73103;BME280;61294;65.988;29.172;2023-04-28T04:43:54;98534.78;;;-1.31;91.15
73103;BME280;61294;65.988;29.172;2023-04-28T04:46:19;98499.31;;;-1.35;90.93
73103;BME280;61294;65.988;29.172;2023-04-28T04:48:46;98538.00;;;-1.16;90.64
73103;BME280;61294;65.988;29.172;2023-04-28T04:51:11;98528.88;;;-1.29;90.74
73103;BME280;61294;65.988;29.172;2023-04-28T04:53:37;98530.63;;;-1.28;90.58
73103;BME280;61294;65.988;29.172;2023-04-28T04:56:03;98530.81;;;-1.23;90.48
73103;BME280;61294;65.988;29.172;2023-04-28T04:58:29;98536.06;;;-0.99;90.17
73103;BME280;61294;65.988;29.172;2023-04-28T05:00:55;98534.25;;;-0.79;89.30
73103;BME280;61294;65.988;29.172;2023-04-28T05:03:21;98529.44;;;-0.70;88.72
73103;BME280;61294;65.988;29.172;2023-04-28T05:05:47;98535.66;;;-0.64;88.29
73103;BME280;61294;65.988;29.172;2023-04-28T05:08:13;98521.81;;;-0.66;87.78
73103;BME280;61294;65.988;29.172;2023-04-28T05:10:39;98531.03;;;-0.73;88.02
73103;BME280;61294;65.988;29.172;2023-04-28T05:13:04;98520.13;;;-0.87;88.53
73103;BME280;61294;65.988;29.172;2023-04-28T05:15:31;98513.41;;;-0.83;88.57
73103;BME280;61294;65.988;29.172;2023-04-28T05:17:57;98525.44;;;-1.07;88.81
73103;BME280;61294;65.988;29.172;2023-04-28T05:20:23;98532.94;;;-1.13;89.40
73103;BME280;61294;65.988;29.172;2023-04-28T05:22:49;98525.31;;;-1.10;89.65
73103;BME280;61294;65.988;29.172;2023-04-28T05:25:15;98517.31;;;-1.16;89.55
73103;BME280;61294;65.988;29.172;2023-04-28T05:27:41;98526.84;;;-1.15;89.65
73103;BME280;61294;65.988;29.172;2023-04-28T05:30:07;98527.06;;;-1.09;89.76
73103;BME280;61294;65.988;29.172;2023-04-28T05:32:36;98521.91;;;-0.86;89.05
73103;BME280;61294;65.988;29.172;2023-04-28T05:35:02;98512.88;;;-0.75;88.40
73103;BME280;61294;65.988;29.172;2023-04-28T05:37:28;98490.06;;;-0.85;88.36
73103;BME280;61294;65.988;29.172;2023-04-28T05:39:54;98492.16;;;-0.75;88.13
73103;BME280;61294;65.988;29.172;2023-04-28T05:42:20;98487.50;;;-0.61;87.94
73103;BME280;61294;65.988;29.172;2023-04-28T05:44:45;98495.28;;;-0.61;87.36
73103;BME280;61294;65.988;29.172;2023-04-28T05:47:11;98499.78;;;-0.55;86.83
73103;BME280;61294;65.988;29.172;2023-04-28T05:49:37;98506.81;;;-0.53;87.15
73103;BME280;61294;65.988;29.172;2023-04-28T05:52:03;98503.50;;;-0.48;86.58
73103;BME280;61294;65.988;29.172;2023-04-28T05:54:29;98503.78;;;-0.41;86.54
73103;BME280;61294;65.988;29.172;2023-04-28T05:56:55;98489.09;;;-0.40;85.75
73103;BME280;61294;65.988;29.172;2023-04-28T05:59:22;98484.72;;;-0.43;85.70
73103;BME280;61294;65.988;29.172;2023-04-28T06:01:48;98497.38;;;-0.26;85.74
73103;BME280;61294;65.988;29.172;2023-04-28T06:04:15;98475.41;;;-0.38;85.08
73103;BME280;61294;65.988;29.172;2023-04-28T06:06:41;98504.47;;;0.04;84.82
73103;BME280;61294;65.988;29.172;2023-04-28T06:09:07;98474.72;;;-0.08;83.98
73103;BME280;61294;65.988;29.172;2023-04-28T06:11:33;98466.25;;;-0.04;83.45
73103;BME280;61294;65.988;29.172;2023-04-28T06:13:59;98463.50;;;0.17;82.61
73103;BME280;61294;65.988;29.172;2023-04-28T06:16:25;98491.94;;;0.42;82.06
73103;BME280;61294;65.988;29.172;2023-04-28T06:18:50;98493.06;;;0.50;82.00
73103;BME280;61294;65.988;29.172;2023-04-28T06:21:17;98489.28;;;0.40;81.71
73103;BME280;61294;65.988;29.172;2023-04-28T06:23:43;98467.31;;;0.29;81.43
73103;BME280;61294;65.988;29.172;2023-04-28T06:26:09;98498.56;;;0.33;81.43
73103;BME280;61294;65.988;29.172;2023-04-28T06:28:35;98500.78;;;0.48;81.44
73103;BME280;61294;65.988;29.172;2023-04-28T06:31:01;98479.66;;;0.36;80.66
73103;BME280;61294;65.988;29.172;2023-04-28T06:33:26;98491.09;;;0.43;81.57
73103;BME280;61294;65.988;29.172;2023-04-28T06:35:52;98484.88;;;0.38;81.54
73103;BME280;61294;65.988;29.172;2023-04-28T06:38:18;98497.75;;;0.34;81.63
73103;BME280;61294;65.988;29.172;2023-04-28T06:40:44;98488.75;;;0.50;81.41
73103;BME280;61294;65.988;29.172;2023-04-28T06:43:10;98487.53;;;0.66;80.91
73103;BME280;61294;65.988;29.172;2023-04-28T06:45:37;98483.28;;;0.68;80.43
73103;BME280;61294;65.988;29.172;2023-04-28T06:48:04;98485.94;;;0.70;80.47
73103;BME280;61294;65.988;29.172;2023-04-28T06:50:30;98485.25;;;0.76;79.97
73103;BME280;61294;65.988;29.172;2023-04-28T06:52:56;98459.03;;;0.66;79.64
73103;BME280;61294;65.988;29.172;2023-04-28T06:55:23;98487.03;;;0.78;79.42
73103;BME280;61294;65.988;29.172;2023-04-28T06:57:49;98482.66;;;0.76;78.50
73103;BME280;61294;65.988;29.172;2023-04-28T07:00:15;98481.41;;;0.92;78.29
73103;BME280;61294;65.988;29.172;2023-04-28T07:02:41;98491.56;;;0.85;78.21
73103;BME280;61294;65.988;29.172;2023-04-28T07:05:07;98501.16;;;0.88;78.23
73103;BME280;61294;65.988;29.172;2023-04-28T07:07:33;98508.09;;;0.88;77.90
73103;BME280;61294;65.988;29.172;2023-04-28T07:09:59;98494.50;;;0.96;77.84
73103;BME280;61294;65.988;29.172;2023-04-28T07:12:26;98493.91;;;1.05;77.92
73103;BME280;61294;65.988;29.172;2023-04-28T07:14:52;98460.06;;;1.00;76.83
73103;BME280;61294;65.988;29.172;2023-04-28T07:17:18;98461.13;;;1.07;76.21
73103;BME280;61294;65.988;29.172;2023-04-28T07:19:44;98486.28;;;1.38;76.25
73103;BME280;61294;65.988;29.172;2023-04-28T07:22:09;98470.47;;;1.31;75.55
73103;BME280;61294;65.988;29.172;2023-04-28T07:24:35;98450.59;;;1.31;75.13
73103;BME280;61294;65.988;29.172;2023-04-28T07:27:01;98487.34;;;1.47;75.15
73103;BME280;61294;65.988;29.172;2023-04-28T07:29:28;98475.66;;;1.31;74.42
73103;BME280;61294;65.988;29.172;2023-04-28T07:31:59;98485.69;;;1.49;74.74
73103;BME280;61294;65.988;29.172;2023-04-28T07:34:26;98482.13;;;1.76;74.37
73103;BME280;61294;65.988;29.172;2023-04-28T07:36:52;98470.28;;;1.85;74.12
73103;BME280;61294;65.988;29.172;2023-04-28T07:39:17;98486.72;;;1.86;73.75
73103;BME280;61294;65.988;29.172;2023-04-28T07:41:43;98454.28;;;2.03;73.04
73103;BME280;61294;65.988;29.172;2023-04-28T07:44:09;98450.59;;;1.95;71.41
73103;BME280;61294;65.988;29.172;2023-04-28T07:46:35;98476.88;;;2.06;71.55
73103;BME280;61294;65.988;29.172;2023-04-28T07:49:01;98484.69;;;2.07;71.76
73103;BME280;61294;65.988;29.172;2023-04-28T07:51:27;98461.69;;;2.21;70.89
73103;BME280;61294;65.988;29.172;2023-04-28T07:53:53;98481.06;;;2.34;70.60
73103;BME280;61294;65.988;29.172;2023-04-28T07:56:19;98470.09;;;2.48;70.20
73103;BME280;61294;65.988;29.172;2023-04-28T07:58:46;98483.31;;;2.55;69.54
73103;BME280;61294;65.988;29.172;2023-04-28T08:01:12;98490.88;;;2.81;69.19
73103;BME280;61294;65.988;29.172;2023-04-28T08:03:38;98486.13;;;3.01;67.86
73103;BME280;61294;65.988;29.172;2023-04-28T08:06:03;98472.19;;;2.99;67.83
73103;BME280;61294;65.988;29.172;2023-04-28T08:08:30;98485.72;;;3.22;67.14
73103;BME280;61294;65.988;29.172;2023-04-28T08:10:56;98486.88;;;2.97;66.69
73103;BME280;61294;65.988;29.172;2023-04-28T08:13:23;98495.41;;;3.28;66.41
73103;BME280;61294;65.988;29.172;2023-04-28T08:15:49;98502.66;;;3.44;65.65
73103;BME280;61294;65.988;29.172;2023-04-28T08:18:15;98503.06;;;3.63;65.42
73103;BME280;61294;65.988;29.172;2023-04-28T08:20:41;98495.75;;;3.88;64.13
73103;BME280;61294;65.988;29.172;2023-04-28T08:23:08;98481.88;;;3.90;63.16
73103;BME280;61294;65.988;29.172;2023-04-28T08:25:34;98484.81;;;4.07;61.94
73103;BME280;61294;65.988;29.172;2023-04-28T08:27:59;98490.13;;;4.12;61.92
73103;BME280;61294;65.988;29.172;2023-04-28T08:30:28;98444.72;;;3.99;60.98
73103;BME280;61294;65.988;29.172;2023-04-28T08:32:54;98487.28;;;4.00;62.72
73103;BME280;61294;65.988;29.172;2023-04-28T08:35:19;98485.16;;;4.27;61.79
73103;BME280;61294;65.988;29.172;2023-04-28T08:37:45;98462.09;;;4.49;61.04
73103;BME280;61294;65.988;29.172;2023-04-28T08:40:14;98485.44;;;4.96;59.14
73103;BME280;61294;65.988;29.172;2023-04-28T08:42:40;98463.66;;;4.96;57.99
73103;BME280;61294;65.988;29.172;2023-04-28T08:45:06;98487.38;;;5.11;58.07
73103;BME280;61294;65.988;29.172;2023-04-28T08:47:37;98487.00;;;5.46;57.13
73103;BME280;61294;65.988;29.172;2023-04-28T08:50:05;98462.16;;;5.12;56.79
73103;BME280;61294;65.988;29.172;2023-04-28T08:52:32;98487.53;;;5.21;56.86
73103;BME280;61294;65.988;29.172;2023-04-28T08:54:59;98480.81;;;5.41;56.26
73103;BME280;61294;65.988;29.172;2023-04-28T08:57:26;98452.63;;;5.86;56.07
73103;BME280;61294;65.988;29.172;2023-04-28T08:59:55;98495.59;;;6.10;54.76
73103;BME280;61294;65.988;29.172;2023-04-28T09:02:21;98464.16;;;6.02;54.52
73103;BME280;61294;65.988;29.172;2023-04-28T09:04:47;98479.63;;;5.85;54.66
73103;BME280;61294;65.988;29.172;2023-04-28T09:07:13;98485.22;;;6.16;53.53
73103;BME280;61294;65.988;29.172;2023-04-28T09:09:39;98469.06;;;6.59;52.91
73103;BME280;61294;65.988;29.172;2023-04-28T09:12:09;98456.16;;;6.83;51.13
73103;BME280;61294;65.988;29.172;2023-04-28T09:14:37;98466.72;;;6.96;50.90
73103;BME280;61294;65.988;29.172;2023-04-28T09:17:09;98457.22;;;7.16;50.43
73103;BME280;61294;65.988;29.172;2023-04-28T09:19:37;98445.09;;;7.34;50.56
73103;BME280;61294;65.988;29.172;2023-04-28T09:22:04;98438.34;;;7.99;48.90
73103;BME280;61294;65.988;29.172;2023-04-28T09:24:38;98436.63;;;11.61;41.64
73103;BME280;61294;65.988;29.172;2023-04-28T09:27:06;98435.41;;;14.71;36.43
73103;BME280;61294;65.988;29.172;2023-04-28T09:29:35;98426.28;;;14.07;35.15
73103;BME280;61294;65.988;29.172;2023-04-28T09:32:18;98433.13;;;12.25;38.08
73103;BME280;61294;65.988;29.172;2023-04-28T09:34:47;98411.50;;;13.08;36.95
73103;BME280;61294;65.988;29.172;2023-04-28T09:37:19;98426.03;;;11.62;38.64
73103;BME280;61294;65.988;29.172;2023-04-28T09:39:50;98416.00;;;11.19;39.32
73103;BME280;61294;65.988;29.172;2023-04-28T09:42:32;98415.38;;;12.35;37.90
73103;BME280;61294;65.988;29.172;2023-04-28T09:45:09;98421.34;;;11.86;37.68
73103;BME280;61294;65.988;29.172;2023-04-28T09:47:40;98419.91;;;14.54;34.86
73103;BME280;61294;65.988;29.172;2023-04-28T09:50:08;98424.88;;;15.68;32.17
73103;BME280;61294;65.988;29.172;2023-04-28T09:52:37;98423.81;;;16.05;31.86
73103;BME280;61294;65.988;29.172;2023-04-28T09:55:04;98402.53;;;15.75;31.70
73103;BME280;61294;65.988;29.172;2023-04-28T09:57:33;98421.44;;;13.86;33.82
73103;BME280;61294;65.988;29.172;2023-04-28T10:00:00;98428.72;;;16.17;31.50
73103;BME280;61294;65.988;29.172;2023-04-28T10:02:27;98425.00;;;18.04;28.32
73103;BME280;61294;65.988;29.172;2023-04-28T10:04:53;98412.91;;;17.47;27.92
73103;BME280;61294;65.988;29.172;2023-04-28T10:07:20;98432.50;;;16.38;29.65
73103;BME280;61294;65.988;29.172;2023-04-28T10:09:47;98423.56;;;16.41;29.95
73103;BME280;61294;65.988;29.172;2023-04-28T10:12:19;98413.50;;;14.64;31.97
73103;BME280;61294;65.988;29.172;2023-04-28T10:14:46;98418.03;;;12.88;33.99
73103;BME280;61294;65.988;29.172;2023-04-28T10:17:22;98422.50;;;10.84;38.00
73103;BME280;61294;65.988;29.172;2023-04-28T10:19:52;98404.94;;;10.83;39.06
73103;BME280;61294;65.988;29.172;2023-04-28T10:25:15;98413.25;;;10.32;40.18
73103;BME280;61294;65.988;29.172;2023-04-28T10:27:47;98410.47;;;12.65;36.77
73103;BME280;61294;65.988;29.172;2023-04-28T10:30:18;98403.09;;;14.17;34.11
73103;BME280;61294;65.988;29.172;2023-04-28T10:32:46;98406.22;;;13.55;34.33
73103;BME280;61294;65.988;29.172;2023-04-28T10:38:13;98391.06;;;14.02;33.11
73103;BME280;61294;65.988;29.172;2023-04-28T10:40:44;98389.28;;;14.40;32.64
73103;BME280;61294;65.988;29.172;2023-04-28T10:48:22;98416.28;;;9.65;40.08
73103;BME280;61294;65.988;29.172;2023-04-28T10:58:53;98410.41;;;8.43;42.76
73103;BME280;61294;65.988;29.172;2023-04-28T11:06:22;98400.53;;;7.26;46.25
73103;BME280;61294;65.988;29.172;2023-04-28T11:08:52;98411.94;;;7.36;46.51
73103;BME280;61294;65.988;29.172;2023-04-28T11:11:30;98397.97;;;7.40;46.12
73103;BME280;61294;65.988;29.172;2023-04-28T11:16:56;98396.19;;;7.33;47.00
73103;BME280;61294;65.988;29.172;2023-04-28T11:19:26;98397.91;;;7.29;46.91
73103;BME280;61294;65.988;29.172;2023-04-28T11:21:58;98404.91;;;7.25;46.19
73103;BME280;61294;65.988;29.172;2023-04-28T11:24:26;98398.66;;;7.06;47.71
73103;BME280;61294;65.988;29.172;2023-04-28T11:26:56;98396.78;;;6.82;47.86
73103;BME280;61294;65.988;29.172;2023-04-28T11:29:34;98380.84;;;6.45;48.26
73103;BME280;61294;65.988;29.172;2023-04-28T11:32:04;98397.16;;;6.13;49.13
73103;BME280;61294;65.988;29.172;2023-04-28T11:34:31;98398.56;;;5.82;50.33
73103;BME280;61294;65.988;29.172;2023-04-28T11:36:57;98398.34;;;5.62;51.21
73103;BME280;61294;65.988;29.172;2023-04-28T11:39:28;98360.31;;;5.10;51.88
73103;BME280;61294;65.988;29.172;2023-04-28T11:41:55;98390.50;;;4.90;52.77
73103;BME280;61294;65.988;29.172;2023-04-28T11:44:23;98356.59;;;4.94;53.09
73103;BME280;61294;65.988;29.172;2023-04-28T11:46:57;98391.72;;;5.18;53.62
73103;BME280;61294;65.988;29.172;2023-04-28T11:49:31;98394.19;;;5.07;53.91
73103;BME280;61294;65.988;29.172;2023-04-28T11:52:07;98400.16;;;4.97;53.64
73103;BME280;61294;65.988;29.172;2023-04-28T11:54:34;98393.88;;;4.82;54.17
73103;BME280;61294;65.988;29.172;2023-04-28T11:57:00;98398.06;;;4.73;55.04
73103;BME280;61294;65.988;29.172;2023-04-28T11:59:30;98379.06;;;4.81;55.02
73103;BME280;61294;65.988;29.172;2023-04-28T12:02:00;98362.22;;;4.58;55.20
73103;BME280;61294;65.988;29.172;2023-04-28T12:04:35;98391.88;;;4.64;54.77
73103;BME280;61294;65.988;29.172;2023-04-28T12:07:12;98359.53;;;4.53;55.25
73103;BME280;61294;65.988;29.172;2023-04-28T12:09:43;98380.06;;;4.90;55.17
73103;BME280;61294;65.988;29.172;2023-04-28T12:12:15;98365.50;;;5.09;54.72
73103;BME280;61294;65.988;29.172;2023-04-28T12:15:04;98352.50;;;5.10;53.90
73103;BME280;61294;65.988;29.172;2023-04-28T12:17:36;98371.63;;;5.09;53.78
73103;BME280;61294;65.988;29.172;2023-04-28T12:22:50;98350.00;;;5.21;53.12
73103;BME280;61294;65.988;29.172;2023-04-28T12:25:17;98381.72;;;5.53;52.93
73103;BME280;61294;65.988;29.172;2023-04-28T12:28:06;98377.44;;;5.60;53.03
73103;BME280;61294;65.988;29.172;2023-04-28T12:30:33;98347.63;;;5.44;52.86
73103;BME280;61294;65.988;29.172;2023-04-28T12:33:00;98372.25;;;5.65;52.31
73103;BME280;61294;65.988;29.172;2023-04-28T12:35:27;98337.38;;;5.63;52.05
73103;BME280;61294;65.988;29.172;2023-04-28T12:37:54;98347.59;;;6.30;51.01
73103;BME280;61294;65.988;29.172;2023-04-28T12:40:21;98356.16;;;6.11;50.81
73103;BME280;61294;65.988;29.172;2023-04-28T12:42:47;98358.59;;;5.94;51.88
73103;BME280;61294;65.988;29.172;2023-04-28T12:45:14;98370.66;;;5.79;52.15
73103;BME280;61294;65.988;29.172;2023-04-28T12:47:41;98361.81;;;5.65;53.21
73103;BME280;61294;65.988;29.172;2023-04-28T12:50:07;98349.75;;;5.01;53.85
73103;BME280;61294;65.988;29.172;2023-04-28T12:52:34;98339.00;;;4.78;54.57
73103;BME280;61294;65.988;29.172;2023-04-28T12:55:02;98349.66;;;4.93;54.34
73103;BME280;61294;65.988;29.172;2023-04-28T12:57:28;98365.44;;;5.03;54.51
73103;BME280;61294;65.988;29.172;2023-04-28T12:59:54;98334.06;;;4.99;54.57
73103;BME280;61294;65.988;29.172;2023-04-28T13:02:21;98333.19;;;4.99;53.97
73103;BME280;61294;65.988;29.172;2023-04-28T13:04:47;98355.31;;;5.27;53.06
73103;BME280;61294;65.988;29.172;2023-04-28T13:07:16;98351.03;;;5.39;53.41
73103;BME280;61294;65.988;29.172;2023-04-28T13:09:42;98320.34;;;5.16;53.56
73103;BME280;61294;65.988;29.172;2023-04-28T13:12:09;98342.81;;;5.03;54.33
73103;BME280;61294;65.988;29.172;2023-04-28T13:14:36;98347.75;;;4.83;54.11
73103;BME280;61294;65.988;29.172;2023-04-28T13:17:02;98355.59;;;4.83;54.62
73103;BME280;61294;65.988;29.172;2023-04-28T13:19:28;98356.31;;;4.71;55.19
73103;BME280;61294;65.988;29.172;2023-04-28T13:21:56;98335.75;;;4.96;54.00
73103;BME280;61294;65.988;29.172;2023-04-28T13:24:21;98348.00;;;5.01;54.34